Time;durP1;ratioP1;P1;durP2;ratioP2;P2;SDS_P1;SDS_P2;PMS_P1;PMS_P2;Temp;Humidity;BMP_temperature;BMP_pressure;BME280_temperature;BME280_humidity;BME280_pressure;Samples;Min_cycle;Max_cycle;Signal;HPM_P1;HPM_P2
2023/05/18 00:01:03;;;;;;;;;;;;;;;6.40;62.96;102220.48;107275;1254;70554;-85
2023/05/18 00:03:37;;;;;;;;;;;;;;;6.40;63.19;102223.58;107319;1254;124176;-84
2023/05/18 00:06:06;;;;;;;;;;;;;;;6.39;63.29;102230.70;107438;1254;61279;-84
2023/05/18 00:08:49;;;;;;;;;;;;;;;6.38;63.39;102236.43;107481;1254;73314;-84
2023/05/18 00:11:22;;;;;;;;;;;;;;;6.38;63.55;102243.38;107568;1254;65518;-84
2023/05/18 00:14:03;;;;;;;;;;;;;;;6.38;63.56;102244.59;107664;1254;71219;-85
2023/05/18 00:16:39;;;;;;;;;;;;;;;6.37;63.58;102248.19;107648;1254;124372;-84
2023/05/18 00:19:06;;;;;;;;;;;;;;;6.36;63.78;102249.52;107445;1254;276150;-85
2023/05/18 00:21:35;;;;;;;;;;;;;;;6.34;63.89;102248.30;107529;1254;124467;-85
2023/05/18 00:24:12;;;;;;;;;;;;;;;6.32;63.96;102252.37;107683;1254;67785;-85
2023/05/18 00:26:42;;;;;;;;;;;;;;;6.30;64.00;102255.57;107573;1254;72726;-85
2023/05/18 00:29:10;;;;;;;;;;;;;;;6.28;64.06;102259.41;107642;1254;61024;-85
2023/05/18 00:31:38;;;;;;;;;;;;;;;6.25;64.08;102257.84;107599;1254;59965;-84
2023/05/18 00:34:09;;;;;;;;;;;;;;;6.23;64.23;102263.66;107560;1254;125125;-84
2023/05/18 00:36:40;;;;;;;;;;;;;;;6.23;64.48;102266.61;107719;1254;65927;-84
2023/05/18 00:39:35;;;;;;;;;;;;;;;6.23;64.43;102271.63;107633;1254;124794;-85
2023/05/18 00:42:10;;;;;;;;;;;;;;;6.21;64.48;102269.43;107686;1254;61196;-84
2023/05/18 00:44:37;;;;;;;;;;;;;;;6.23;64.76;102269.19;107629;1254;61597;-85
2023/05/18 00:47:03;;;;;;;;;;;;;;;6.23;64.77;102268.33;107562;1254;124538;-85
2023/05/18 00:49:31;;;;;;;;;;;;;;;6.25;64.89;102269.14;107708;1254;65708;-85
2023/05/18 00:52:00;;;;;;;;;;;;;;;6.25;65.00;102273.14;107397;1258;124227;-85
2023/05/18 00:54:33;;;;;;;;;;;;;;;6.25;64.98;102274.37;107515;1254;60898;-84
2023/05/18 00:57:00;;;;;;;;;;;;;;;6.24;65.05;102268.60;107688;1254;124571;-85
2023/05/18 00:59:28;;;;;;;;;;;;;;;6.23;65.13;102267.48;107778;1254;73699;-84
2023/05/18 01:01:55;;;;;;;;;;;;;;;6.22;65.22;102264.96;107680;1254;66187;-83
2023/05/18 01:04:30;;;;;;;;;;;;;;;6.20;65.35;102266.93;107525;1255;124228;-83
2023/05/18 01:07:05;;;;;;;;;;;;;;;6.18;65.42;102264.55;107698;1254;61250;-82
2023/05/18 01:09:32;;;;;;;;;;;;;;;6.16;65.54;102268.25;107438;1254;123775;-86
2023/05/18 01:12:16;;;;;;;;;;;;;;;6.13;65.61;102269.08;107481;1254;74449;-85
2023/05/18 01:15:02;;;;;;;;;;;;;;;6.11;65.68;102275.88;107208;1254;124331;-86
2023/05/18 01:17:42;;;;;;;;;;;;;;;6.08;65.86;102279.69;107529;1255;73101;-86
2023/05/18 01:20:39;;;;;;;;;;;;;;;6.04;65.74;102281.20;107436;1254;61355;-85
2023/05/18 01:26:36;;;;;;;;;;;;;;;5.99;66.04;102285.35;107493;1254;75535;-85
2023/05/18 01:29:06;;;;;;;;;;;;;;;5.95;66.10;102287.17;107725;1254;124321;-85
2023/05/18 01:31:38;;;;;;;;;;;;;;;5.92;66.16;102288.19;107662;1256;72732;-85
2023/05/18 01:34:17;;;;;;;;;;;;;;;5.88;66.35;102285.83;107575;1254;123928;-86
2023/05/18 01:36:51;;;;;;;;;;;;;;;5.85;66.45;102284.20;107538;1254;61023;-85
2023/05/18 01:39:18;;;;;;;;;;;;;;;5.82;66.43;102284.71;107375;1256;123948;-85
2023/05/18 01:41:48;;;;;;;;;;;;;;;5.79;66.49;102285.92;107756;1257;67433;-83
2023/05/18 01:44:39;;;;;;;;;;;;;;;5.76;66.65;102291.30;107595;1254;71395;-84
2023/05/18 01:47:13;;;;;;;;;;;;;;;5.74;66.86;102294.59;107670;1257;125068;-84
2023/05/18 01:50:00;;;;;;;;;;;;;;;5.72;66.77;102293.09;107814;1254;60567;-84
2023/05/18 01:52:39;;;;;;;;;;;;;;;5.72;66.96;102289.72;107299;1254;124836;-84
2023/05/18 01:55:09;;;;;;;;;;;;;;;5.71;67.08;102292.50;107560;1254;65201;-84
2023/05/18 01:57:37;;;;;;;;;;;;;;;5.71;67.09;102296.17;108428;1254;124403;-85
2023/05/18 02:00:06;;;;;;;;;;;;;;;5.72;67.20;102301.07;107716;1254;61133;-84
2023/05/18 02:02:34;;;;;;;;;;;;;;;5.73;67.21;102305.84;107710;1254;60621;-85
2023/05/18 02:05:06;;;;;;;;;;;;;;;5.74;67.27;102305.92;107492;1259;124247;-85
2023/05/18 02:08:05;;;;;;;;;;;;;;;5.75;67.40;102306.34;107597;1254;67664;-88
2023/05/18 02:10:32;;;;;;;;;;;;;;;5.76;67.48;102308.55;107527;1254;124847;-85
2023/05/18 02:12:59;;;;;;;;;;;;;;;5.78;67.49;102310.18;107300;1254;61248;-85
2023/05/18 02:15:38;;;;;;;;;;;;;;;5.78;67.49;102313.89;107409;1254;124956;-85
2023/05/18 02:18:07;;;;;;;;;;;;;;;5.78;67.63;102319.63;107332;1254;74731;-85
2023/05/18 02:20:36;;;;;;;;;;;;;;;5.77;67.62;102324.09;107534;1254;65897;-85
2023/05/18 02:23:03;;;;;;;;;;;;;;;5.77;67.67;102321.63;107646;1253;123667;-85
2023/05/18 02:25:31;;;;;;;;;;;;;;;5.76;67.69;102320.85;107475;1254;61283;-87
2023/05/18 02:28:01;;;;;;;;;;;;;;;5.74;67.80;102322.64;107420;1254;124246;-85
2023/05/18 02:30:31;;;;;;;;;;;;;;;5.73;67.82;102328.15;107518;1254;75091;-85
2023/05/18 02:33:18;;;;;;;;;;;;;;;5.71;67.91;102324.88;107120;1254;123969;-85
2023/05/18 02:35:46;;;;;;;;;;;;;;;5.69;67.91;102323.34;107318;1254;71410;-85
2023/05/18 02:38:14;;;;;;;;;;;;;;;5.68;67.99;102327.13;107408;1254;61762;-85
2023/05/18 02:40:41;;;;;;;;;;;;;;;5.67;67.95;102331.05;107389;1257;123827;-85
2023/05/18 02:43:15;;;;;;;;;;;;;;;5.65;67.99;102334.96;107427;1255;75185;-85
2023/05/18 02:45:48;;;;;;;;;;;;;;;5.65;68.11;102337.76;107193;1254;123819;-86
2023/05/18 02:48:21;;;;;;;;;;;;;;;5.64;68.19;102338.02;107540;1253;71390;-86
2023/05/18 02:50:56;;;;;;;;;;;;;;;5.64;68.15;102334.69;107493;1254;124303;-86
2023/05/18 02:53:42;;;;;;;;;;;;;;;5.62;68.28;102334.03;107469;1254;59706;-85
2023/05/18 02:56:29;;;;;;;;;;;;;;;5.64;68.43;102339.71;107540;1256;74671;-85
2023/05/18 02:59:06;;;;;;;;;;;;;;;5.64;68.49;102340.96;107683;1254;123899;-85
2023/05/18 03:01:39;;;;;;;;;;;;;;;5.65;68.53;102343.66;107577;1254;72726;-85
2023/05/18 03:04:26;;;;;;;;;;;;;;;5.67;68.52;102347.21;107372;1254;124236;-84
2023/05/18 03:06:57;;;;;;;;;;;;;;;5.69;68.61;102348.96;107639;1256;60912;-85
2023/05/18 03:09:26;;;;;;;;;;;;;;;5.72;68.72;102347.09;107261;1253;124258;-84
2023/05/18 03:12:08;;;;;;;;;;;;;;;5.76;68.77;102344.07;107387;1254;65763;-85
2023/05/18 03:14:37;;;;;;;;;;;;;;;5.81;68.83;102344.59;107614;1254;71951;-86
2023/05/18 03:17:04;;;;;;;;;;;;;;;5.85;68.79;102346.27;107182;1256;124960;-85
2023/05/18 03:19:46;;;;;;;;;;;;;;;5.91;68.69;102351.70;107215;1254;61254;-85
2023/05/18 03:22:13;;;;;;;;;;;;;;;5.99;68.73;102350.23;107263;1256;124584;-85
2023/05/18 03:24:40;;;;;;;;;;;;;;;6.08;68.63;102354.09;107270;1258;66976;-86
2023/05/18 03:27:11;;;;;;;;;;;;;;;6.17;68.58;102356.12;107229;1254;125254;-85
2023/05/18 03:29:40;;;;;;;;;;;;;;;6.26;68.54;102357.45;107597;1254;61216;-85
2023/05/18 03:32:08;;;;;;;;;;;;;;;6.38;68.46;102357.42;107454;1254;60362;-86
2023/05/18 03:34:48;;;;;;;;;;;;;;;6.53;68.36;102362.05;107443;1256;124819;-85
2023/05/18 03:37:21;;;;;;;;;;;;;;;6.70;68.26;102360.04;107562;1256;67106;-85
2023/05/18 03:40:07;;;;;;;;;;;;;;;6.87;68.16;102359.96;107256;1259;124740;-85
2023/05/18 03:42:46;;;;;;;;;;;;;;;7.08;67.95;102363.03;107425;1254;60501;-85
2023/05/18 03:45:13;;;;;;;;;;;;;;;7.25;67.62;102363.61;107289;1254;124660;-85
2023/05/18 03:47:46;;;;;;;;;;;;;;;7.38;67.42;102361.84;107450;1254;74712;-85
2023/05/18 03:50:20;;;;;;;;;;;;;;;7.55;67.28;102367.66;107708;1254;65790;-85
2023/05/18 03:52:48;;;;;;;;;;;;;;;7.79;67.11;102367.77;107415;1254;123962;-86
2023/05/18 03:55:16;;;;;;;;;;;;;;;8.08;66.97;102370.54;107515;1254;60462;-85
2023/05/18 03:57:43;;;;;;;;;;;;;;;8.51;66.87;102370.73;107646;1254;124496;-86
2023/05/18 04:00:12;;;;;;;;;;;;;;;8.94;66.34;102370.40;107488;1254;75041;-85
2023/05/18 04:02:46;;;;;;;;;;;;;;;9.30;65.81;102374.22;107463;1256;65865;-85
2023/05/18 04:05:19;;;;;;;;;;;;;;;9.59;65.06;102374.77;107365;1254;71043;-85
2023/05/18 04:08:00;;;;;;;;;;;;;;;9.74;64.46;102378.20;107136;1256;60482;-86
2023/05/18 04:10:33;;;;;;;;;;;;;;;9.93;64.14;102379.23;107223;1255;124027;-86
2023/05/18 04:13:06;;;;;;;;;;;;;;;10.10;63.72;102380.15;107405;1255;73097;-86
2023/05/18 04:15:43;;;;;;;;;;;;;;;10.20;63.32;102381.94;107133;1253;124598;-85
2023/05/18 04:18:11;;;;;;;;;;;;;;;10.26;62.92;102379.97;107386;1255;73094;-86
2023/05/18 04:20:40;;;;;;;;;;;;;;;10.37;62.72;102380.34;107161;1254;61157;-86
2023/05/18 04:23:37;;;;;;;;;;;;;;;10.51;62.48;102381.59;107336;1256;123981;-86
2023/05/18 04:26:05;;;;;;;;;;;;;;;10.73;62.38;102384.15;107374;1256;73116;-89
2023/05/18 04:28:36;;;;;;;;;;;;;;;11.05;62.18;102383.45;107199;1257;124151;-88
2023/05/18 04:31:13;;;;;;;;;;;;;;;11.66;62.55;102383.20;107340;1256;71280;-90
2023/05/18 04:33:56;;;;;;;;;;;;;;;12.65;62.41;102381.80;107428;1257;124835;-89
2023/05/18 04:36:29;;;;;;;;;;;;;;;13.96;61.80;102379.64;107409;1256;60726;-88
2023/05/18 04:38:59;;;;;;;;;;;;;;;15.42;61.05;102383.37;107367;1256;124294;-87
2023/05/18 04:41:44;;;;;;;;;;;;;;;16.71;59.27;102379.83;107579;1255;65832;-87
2023/05/18 04:44:14;;;;;;;;;;;;;;;17.31;57.13;102382.75;107415;1256;73194;-86
2023/05/18 04:46:41;;;;;;;;;;;;;;;17.86;56.15;102385.05;107006;1259;124965;-85
2023/05/18 04:49:08;;;;;;;;;;;;;;;18.61;55.16;102387.59;107261;1256;60174;-88
2023/05/18 04:54:58;;;;;;;;;;;;;;;21.02;52.59;102388.09;107302;1259;66270;-87
2023/05/18 04:57:27;;;;;;;;;;;;;;;21.77;50.82;102390.74;107314;1256;124808;-86
2023/05/18 05:00:01;;;;;;;;;;;;;;;22.48;49.52;102394.04;107602;1255;61257;-87
2023/05/18 05:02:52;;;;;;;;;;;;;;;23.09;47.34;102396.42;107417;1256;61269;-87
2023/05/18 05:05:36;;;;;;;;;;;;;;;23.42;45.93;102396.55;107443;1256;74695;-86
2023/05/18 05:08:05;;;;;;;;;;;;;;;24.06;45.24;102396.17;108242;1254;67080;-83
2023/05/18 05:10:32;;;;;;;;;;;;;;;24.79;44.10;102396.09;107859;1254;124767;-82
2023/05/18 05:12:59;;;;;;;;;;;;;;;25.24;42.97;102401.66;107745;1254;59965;-84
2023/05/18 05:15:26;;;;;;;;;;;;;;;25.29;41.84;102403.40;107690;1254;124461;-83
2023/05/18 05:17:59;;;;;;;;;;;;;;;24.96;40.97;102408.70;108132;1253;74635;-85
2023/05/18 05:20:26;;;;;;;;;;;;;;;24.64;41.07;102412.73;107932;1256;67346;-85
2023/05/18 05:22:57;;;;;;;;;;;;;;;24.60;40.68;102409.70;107283;1253;124376;-85
2023/05/18 05:25:27;;;;;;;;;;;;;;;24.51;40.47;102412.63;107461;1254;60859;-84
2023/05/18 05:28:03;;;;;;;;;;;;;;;24.91;40.93;102420.79;107625;1254;124347;-88
2023/05/18 05:30:36;;;;;;;;;;;;;;;25.92;40.61;102421.73;107870;1254;74820;-85
2023/05/18 05:33:16;;;;;;;;;;;;;;;26.96;39.38;102421.17;107514;1256;124218;-86
2023/05/18 05:35:52;;;;;;;;;;;;;;;26.39;37.38;102423.11;107703;1254;72712;-86
2023/05/18 05:38:19;;;;;;;;;;;;;;;24.79;36.72;102422.45;107829;1253;59564;-85
2023/05/18 05:40:56;;;;;;;;;;;;;;;23.18;36.40;102431.13;107625;1253;124169;-84
2023/05/18 05:43:23;;;;;;;;;;;;;;;21.30;36.67;102431.31;107705;1254;73709;-83
2023/05/18 05:45:58;;;;;;;;;;;;;;;19.89;37.70;102432.86;107716;1254;124698;-83
2023/05/18 05:48:25;;;;;;;;;;;;;;;18.90;38.21;102441.11;108378;1254;71041;-83
2023/05/18 05:50:52;;;;;;;;;;;;;;;17.97;38.66;102443.71;107905;1254;124733;-82
2023/05/18 05:53:19;;;;;;;;;;;;;;;17.27;39.48;102442.83;107820;1254;60124;-82
2023/05/18 05:55:46;;;;;;;;;;;;;;;16.86;40.15;102442.83;107822;1254;73380;-82
2023/05/18 05:58:13;;;;;;;;;;;;;;;16.48;40.49;102443.20;107703;1254;124796;-82
2023/05/18 06:00:41;;;;;;;;;;;;;;;16.14;40.95;102448.45;107786;1254;72669;-84
2023/05/18 06:03:08;;;;;;;;;;;;;;;15.87;41.47;102449.77;107656;1254;124277;-83
2023/05/18 06:05:35;;;;;;;;;;;;;;;15.60;41.58;102450.84;108901;1254;59116;-84
2023/05/18 06:08:03;;;;;;;;;;;;;;;15.27;41.75;102457.77;108713;1254;74368;-84
2023/05/18 06:10:32;;;;;;;;;;;;;;;14.99;42.17;102454.70;107344;1254;124584;-89
2023/05/18 06:13:15;;;;;;;;;;;;;;;14.78;42.47;102460.88;107280;1254;72518;-87
2023/05/18 06:15:42;;;;;;;;;;;;;;;14.62;42.91;102461.88;107167;1254;124329;-86
2023/05/18 06:18:15;;;;;;;;;;;;;;;14.53;43.13;102464.91;107212;1254;61347;-86
2023/05/18 06:20:42;;;;;;;;;;;;;;;14.46;43.18;102474.16;107255;1254;73391;-84
2023/05/18 06:23:09;;;;;;;;;;;;;;;14.26;43.15;102471.13;107539;1254;124502;-88
2023/05/18 06:25:36;;;;;;;;;;;;;;;14.12;43.40;102475.56;107807;1254;71373;-86
2023/05/18 06:28:03;;;;;;;;;;;;;;;14.04;43.56;102477.21;108122;1254;124136;-84
2023/05/18 06:30:31;;;;;;;;;;;;;;;13.96;43.69;102477.98;107879;1254;60889;-84
2023/05/18 06:33:00;;;;;;;;;;;;;;;13.95;43.72;102480.39;107675;1254;124337;-84
2023/05/18 06:35:29;;;;;;;;;;;;;;;13.90;43.76;102483.19;107608;1254;65476;-85
2023/05/18 06:37:57;;;;;;;;;;;;;;;13.76;43.70;102488.11;107561;1254;73209;-83
2023/05/18 06:40:24;;;;;;;;;;;;;;;13.63;43.79;102489.34;107550;1254;124199;-84
2023/05/18 06:42:52;;;;;;;;;;;;;;;13.52;43.95;102492.27;107801;1254;59617;-88
2023/05/18 06:45:25;;;;;;;;;;;;;;;13.50;44.16;102495.70;107412;1254;124721;-86
2023/05/18 06:47:52;;;;;;;;;;;;;;;13.51;44.11;102494.32;107403;1254;65773;-83
2023/05/18 06:50:20;;;;;;;;;;;;;;;13.50;44.17;102497.28;107407;1254;72895;-84
2023/05/18 06:52:47;;;;;;;;;;;;;;;13.50;44.44;102494.13;107350;1254;125108;-84
2023/05/18 06:55:15;;;;;;;;;;;;;;;13.54;44.28;102492.16;107684;1256;60303;-83
2023/05/18 06:57:42;;;;;;;;;;;;;;;13.54;44.13;102499.06;107621;1256;124241;-83
2023/05/18 07:00:15;;;;;;;;;;;;;;;13.51;43.86;102504.56;107608;1254;66679;-83
2023/05/18 07:02:49;;;;;;;;;;;;;;;13.39;43.58;102502.88;107485;1257;72626;-84
2023/05/18 07:05:28;;;;;;;;;;;;;;;13.34;43.66;102504.23;107816;1254;61014;-83
2023/05/18 07:07:55;;;;;;;;;;;;;;;13.32;43.31;102507.83;107780;1256;60683;-84
2023/05/18 07:10:24;;;;;;;;;;;;;;;13.30;43.22;102509.30;107482;1253;124435;-83
2023/05/18 07:12:51;;;;;;;;;;;;;;;13.30;43.11;102508.07;107806;1257;67168;-82
2023/05/18 07:15:21;;;;;;;;;;;;;;;13.29;43.16;102515.64;107514;1256;124562;-83
2023/05/18 07:17:49;;;;;;;;;;;;;;;13.29;43.06;102517.73;107670;1254;59528;-83
2023/05/18 07:20:23;;;;;;;;;;;;;;;13.32;43.08;102512.61;107820;1255;59821;-90
2023/05/18 07:22:50;;;;;;;;;;;;;;;13.32;42.93;102517.52;107752;1254;124429;-85
2023/05/18 07:25:18;;;;;;;;;;;;;;;13.32;42.77;102526.52;107604;1257;66319;-84
2023/05/18 07:27:45;;;;;;;;;;;;;;;13.32;42.65;102526.38;107983;1254;124584;-86
2023/05/18 07:30:13;;;;;;;;;;;;;;;13.36;42.71;102525.65;107429;1256;61337;-84
2023/05/18 07:32:44;;;;;;;;;;;;;;;13.40;42.55;102527.43;107546;1257;59987;-83
2023/05/18 07:35:19;;;;;;;;;;;;;;;13.41;42.58;102532.40;107713;1254;124022;-85
2023/05/18 07:37:46;;;;;;;;;;;;;;;13.45;42.64;102532.89;107652;1254;65453;-84
2023/05/18 07:40:13;;;;;;;;;;;;;;;13.46;42.64;102527.10;107595;1254;124095;-80
2023/05/18 07:42:40;;;;;;;;;;;;;;;13.50;42.58;102530.98;107636;1257;61356;-81
2023/05/18 07:45:07;;;;;;;;;;;;;;;13.55;42.31;102534.56;107636;1254;124795;-87
2023/05/18 07:47:35;;;;;;;;;;;;;;;13.60;42.13;102533.17;107734;1257;73399;-85
2023/05/18 07:50:05;;;;;;;;;;;;;;;13.65;42.07;102532.30;107499;1259;65776;-86
2023/05/18 07:52:55;;;;;;;;;;;;;;;13.71;42.20;102536.27;107634;1257;122950;-87
2023/05/18 07:55:24;;;;;;;;;;;;;;;13.75;42.00;102540.48;107533;1257;61352;-86
2023/05/18 07:57:53;;;;;;;;;;;;;;;13.76;41.86;102547.05;107566;1254;124060;-89
2023/05/18 08:00:22;;;;;;;;;;;;;;;13.71;41.80;102543.67;107714;1259;74775;-87
2023/05/18 08:02:51;;;;;;;;;;;;;;;13.72;41.90;102543.36;107650;1257;65632;-84
2023/05/18 08:05:21;;;;;;;;;;;;;;;13.80;41.78;102545.60;107601;1255;71394;-84
2023/05/18 08:07:50;;;;;;;;;;;;;;;13.88;41.74;102547.88;107671;1254;61292;-86
2023/05/18 08:10:17;;;;;;;;;;;;;;;13.97;41.75;102550.19;107459;1254;124471;-83
2023/05/18 08:12:46;;;;;;;;;;;;;;;14.01;41.67;102549.45;107420;1254;75146;-84
2023/05/18 08:15:20;;;;;;;;;;;;;;;14.09;41.48;102550.65;107654;1254;124414;-88
2023/05/18 08:17:47;;;;;;;;;;;;;;;14.14;41.33;102549.64;107854;1254;72412;-84
2023/05/18 08:20:20;;;;;;;;;;;;;;;14.13;41.33;102550.31;107688;1254;60062;-83
2023/05/18 08:22:52;;;;;;;;;;;;;;;14.19;41.42;102543.30;107561;1254;124100;-84
2023/05/18 08:25:20;;;;;;;;;;;;;;;14.30;41.41;102547.23;107323;1254;75217;-85
2023/05/18 08:27:47;;;;;;;;;;;;;;;14.32;41.18;102543.40;107583;1258;124803;-85
2023/05/18 08:30:14;;;;;;;;;;;;;;;14.36;41.00;102550.80;107602;1254;72664;-84
2023/05/18 08:32:41;;;;;;;;;;;;;;;14.34;40.93;102549.48;107648;1254;61018;-83
2023/05/18 08:35:08;;;;;;;;;;;;;;;14.32;40.73;102549.45;107553;1256;124449;-84
2023/05/18 08:37:38;;;;;;;;;;;;;;;14.31;40.58;102553.79;107472;1253;74654;-83
2023/05/18 08:40:10;;;;;;;;;;;;;;;14.27;40.24;102557.16;107364;1254;124412;-84
2023/05/18 08:42:45;;;;;;;;;;;;;;;14.19;40.26;102556.68;107794;1254;72405;-82
2023/05/18 08:45:22;;;;;;;;;;;;;;;14.17;40.31;102557.54;107378;1256;124271;-83
2023/05/18 08:47:50;;;;;;;;;;;;;;;14.23;40.29;102562.83;107296;1254;60115;-80
2023/05/18 08:50:19;;;;;;;;;;;;;;;14.25;40.17;102561.34;107495;1254;72971;-84
2023/05/18 08:52:46;;;;;;;;;;;;;;;14.26;40.25;102559.27;107571;1254;124723;-84
2023/05/18 08:55:14;;;;;;;;;;;;;;;14.30;40.10;102563.65;107678;1257;71843;-84
2023/05/18 08:57:42;;;;;;;;;;;;;;;14.30;39.96;102562.23;107356;1255;124289;-84
2023/05/18 09:00:10;;;;;;;;;;;;;;;14.33;40.05;102563.05;107525;1256;61215;-84
2023/05/18 09:02:38;;;;;;;;;;;;;;;14.33;40.02;102567.98;107568;1255;73291;-84
2023/05/18 09:05:06;;;;;;;;;;;;;;;14.31;40.00;102569.69;107701;1254;124968;-84
2023/05/18 09:07:35;;;;;;;;;;;;;;;14.34;40.06;102564.14;107434;1254;72220;-84
2023/05/18 09:10:02;;;;;;;;;;;;;;;14.33;40.09;102567.13;107388;1258;124386;-84
2023/05/18 09:12:31;;;;;;;;;;;;;;;14.26;40.13;102560.52;107260;1256;60470;-86
2023/05/18 09:15:05;;;;;;;;;;;;;;;14.22;39.89;102562.98;107201;1261;124259;-87
2023/05/18 09:17:40;;;;;;;;;;;;;;;14.21;40.15;102556.59;107577;1253;67113;-85
2023/05/18 09:20:15;;;;;;;;;;;;;;;14.29;39.93;102563.42;107528;1257;71726;-85
2023/05/18 09:22:54;;;;;;;;;;;;;;;14.31;39.97;102561.57;107402;1254;124343;-85
2023/05/18 09:25:21;;;;;;;;;;;;;;;14.35;40.06;102566.84;107415;1257;61172;-86
2023/05/18 09:27:50;;;;;;;;;;;;;;;14.37;39.90;102557.58;107374;1256;124863;-83
2023/05/18 09:30:17;;;;;;;;;;;;;;;14.41;39.99;102561.59;107568;1254;67122;-83
2023/05/18 09:32:51;;;;;;;;;;;;;;;14.41;39.87;102566.91;107502;1254;71361;-84
2023/05/18 09:35:18;;;;;;;;;;;;;;;14.39;39.84;102563.98;107545;1255;61212;-85
2023/05/18 09:37:48;;;;;;;;;;;;;;;14.40;39.93;102562.10;107283;1255;60415;-86
2023/05/18 09:40:15;;;;;;;;;;;;;;;14.41;39.87;102565.30;107375;1256;124195;-80
2023/05/18 09:42:50;;;;;;;;;;;;;;;14.40;39.96;102564.58;107506;1254;68347;-85
2023/05/18 09:45:27;;;;;;;;;;;;;;;14.44;39.95;102561.52;107384;1258;124598;-86
2023/05/18 09:47:53;;;;;;;;;;;;;;;14.45;39.80;102557.69;107348;1257;60026;-83
2023/05/18 09:50:21;;;;;;;;;;;;;;;14.45;39.84;102557.86;107448;1254;62268;-86
2023/05/18 09:52:48;;;;;;;;;;;;;;;14.43;39.73;102559.55;107295;1255;124051;-86
2023/05/18 09:55:19;;;;;;;;;;;;;;;14.41;39.72;102564.24;107377;1254;65629;-86
2023/05/18 09:57:51;;;;;;;;;;;;;;;14.36;39.64;102561.05;107401;1254;124795;-84
2023/05/18 10:00:18;;;;;;;;;;;;;;;14.36;39.82;102560.17;107632;1260;61221;-87
2023/05/18 10:02:47;;;;;;;;;;;;;;;14.38;39.74;102567.16;107483;1259;59905;-87
2023/05/18 10:05:32;;;;;;;;;;;;;;;14.39;39.73;102568.26;107187;1254;124132;-91
2023/05/18 10:08:00;;;;;;;;;;;;;;;14.39;39.55;102567.71;107317;1257;67060;-84
2023/05/18 10:10:30;;;;;;;;;;;;;;;14.37;39.62;102560.73;107814;1254;123052;-87
2023/05/18 10:12:58;;;;;;;;;;;;;;;14.45;39.95;102560.86;107509;1254;61244;-84
2023/05/18 10:15:25;;;;;;;;;;;;;;;14.56;40.04;102560.95;107091;1257;124929;-84
2023/05/18 10:17:54;;;;;;;;;;;;;;;14.64;39.85;102566.73;107517;1256;74738;-85
2023/05/18 10:20:30;;;;;;;;;;;;;;;14.67;39.68;102568.26;107229;1257;67097;-84
2023/05/18 10:22:58;;;;;;;;;;;;;;;14.62;39.35;102564.20;107053;1259;124304;-84
2023/05/18 10:25:27;;;;;;;;;;;;;;;14.59;39.53;102568.31;107216;1254;61365;-85
2023/05/18 10:27:55;;;;;;;;;;;;;;;14.61;39.43;102568.55;107377;1254;124545;-86
2023/05/18 10:30:22;;;;;;;;;;;;;;;14.57;39.42;102570.90;107569;1254;74454;-85
2023/05/18 10:33:00;;;;;;;;;;;;;;;14.55;39.34;102570.63;107697;1254;65883;-85
2023/05/18 10:35:30;;;;;;;;;;;;;;;14.57;39.32;102577.63;107798;1254;71180;-85
2023/05/18 10:37:57;;;;;;;;;;;;;;;14.55;39.20;102570.10;107559;1256;60351;-86
2023/05/18 10:40:25;;;;;;;;;;;;;;;14.52;39.34;102570.52;107479;1257;124502;-84
2023/05/18 10:42:53;;;;;;;;;;;;;;;14.55;39.38;102573.44;107482;1257;73696;-84
2023/05/18 10:45:20;;;;;;;;;;;;;;;14.57;39.40;102573.54;107390;1257;124305;-84
2023/05/18 10:47:53;;;;;;;;;;;;;;;14.60;39.47;102569.23;107544;1259;71325;-85
2023/05/18 10:50:21;;;;;;;;;;;;;;;14.64;39.46;102567.27;107300;1258;59954;-84
2023/05/18 10:52:51;;;;;;;;;;;;;;;14.65;39.35;102568.71;107178;1254;124377;-87
2023/05/18 10:55:24;;;;;;;;;;;;;;;14.62;39.47;102569.68;107389;1254;73548;-86
2023/05/18 10:57:53;;;;;;;;;;;;;;;14.59;39.26;102569.39;106966;1256;124249;-85
2023/05/18 11:00:20;;;;;;;;;;;;;;;14.57;39.41;102569.52;107165;1254;71269;-86
2023/05/18 11:02:55;;;;;;;;;;;;;;;14.57;39.28;102565.58;107108;1254;60014;-84
2023/05/18 11:05:24;;;;;;;;;;;;;;;14.56;39.48;102565.20;107224;1254;124374;-87
2023/05/18 11:08:00;;;;;;;;;;;;;;;14.62;39.46;102569.67;107261;1259;74679;-87
2023/05/18 11:10:45;;;;;;;;;;;;;;;14.58;39.13;102564.73;107438;1254;124504;-88
2023/05/18 11:13:20;;;;;;;;;;;;;;;14.54;39.32;102564.91;107481;1254;71323;-85
2023/05/18 11:15:54;;;;;;;;;;;;;;;14.56;39.27;102563.08;107175;1253;124674;-83
2023/05/18 11:18:43;;;;;;;;;;;;;;;14.59;39.36;102562.86;107304;1255;61244;-85
2023/05/18 11:24:31;;;;;;;;;;;;;;;14.65;39.45;102567.47;107235;1254;68100;-87
2023/05/18 11:27:07;;;;;;;;;;;;;;;14.68;39.24;102567.23;107139;1254;72771;-83
2023/05/18 11:29:34;;;;;;;;;;;;;;;14.69;39.19;102565.50;107402;1257;60564;-84
2023/05/18 11:32:02;;;;;;;;;;;;;;;14.68;39.14;102570.61;107322;1257;60510;-84
2023/05/18 11:34:39;;;;;;;;;;;;;;;14.66;39.13;102571.07;107387;1254;124698;-84
2023/05/18 11:37:25;;;;;;;;;;;;;;;14.65;38.95;102576.13;107908;1254;66001;-84
2023/05/18 11:39:53;;;;;;;;;;;;;;;14.61;38.99;102573.71;107482;1257;124026;-90
2023/05/18 11:42:21;;;;;;;;;;;;;;;14.57;38.92;102579.73;107513;1257;61302;-85
2023/05/18 11:45:19;;;;;;;;;;;;;;;14.54;38.94;102575.16;107564;1259;61339;-86
2023/05/18 11:47:57;;;;;;;;;;;;;;;14.56;39.19;102575.62;107368;1254;75575;-85
2023/05/18 11:50:30;;;;;;;;;;;;;;;14.63;39.17;102577.47;107480;1260;67134;-86
2023/05/18 11:53:04;;;;;;;;;;;;;;;14.69;39.19;102574.88;107100;1254;124649;-86
2023/05/18 11:55:36;;;;;;;;;;;;;;;14.75;39.13;102577.77;107496;1253;59974;-82
2023/05/18 11:58:09;;;;;;;;;;;;;;;14.77;39.01;102577.82;107343;1254;124526;-86
2023/05/18 12:00:36;;;;;;;;;;;;;;;14.73;38.74;102583.52;107489;1257;72601;-85
2023/05/18 12:03:03;;;;;;;;;;;;;;;14.70;38.58;102581.62;107402;1254;67052;-85
2023/05/18 12:06:00;;;;;;;;;;;;;;;14.69;38.86;102578.75;107269;1259;124554;-87
2023/05/18 12:09:00;;;;;;;;;;;;;;;14.74;38.88;102583.04;107225;1254;61216;-85
2023/05/18 12:11:32;;;;;;;;;;;;;;;14.78;38.88;102583.36;107534;1254;123865;-87
2023/05/18 12:14:08;;;;;;;;;;;;;;;14.78;38.75;102584.77;107588;1254;73840;-92
2023/05/18 12:16:43;;;;;;;;;;;;;;;14.73;38.63;102577.69;107173;1257;124176;-86
2023/05/18 12:19:12;;;;;;;;;;;;;;;14.71;38.66;102582.02;107330;1254;244515;-86
2023/05/18 12:21:40;;;;;;;;;;;;;;;14.74;38.66;102593.27;107291;1257;124434;-85
2023/05/18 12:24:11;;;;;;;;;;;;;;;14.71;38.62;102583.43;107630;1254;59700;-85
2023/05/18 12:26:40;;;;;;;;;;;;;;;14.77;38.92;102586.66;107502;1254;74637;-83
2023/05/18 12:29:11;;;;;;;;;;;;;;;14.86;38.92;102591.58;107396;1260;124686;-83
2023/05/18 12:31:43;;;;;;;;;;;;;;;14.87;38.70;102590.73;107739;1254;71397;-83
2023/05/18 12:34:11;;;;;;;;;;;;;;;14.88;38.73;102589.89;107540;1254;124053;-83
2023/05/18 12:36:46;;;;;;;;;;;;;;;14.92;38.77;102592.88;107813;1254;62203;-83
2023/05/18 12:39:16;;;;;;;;;;;;;;;14.97;38.98;102588.45;108078;1254;124681;-84
2023/05/18 12:41:43;;;;;;;;;;;;;;;15.10;39.00;102587.86;107981;1254;64754;-82
2023/05/18 12:44:10;;;;;;;;;;;;;;;15.17;38.91;102589.52;107842;1254;72167;-82
2023/05/18 12:46:37;;;;;;;;;;;;;;;15.23;38.68;102593.27;107803;1254;124672;-83
2023/05/18 12:49:05;;;;;;;;;;;;;;;15.25;38.58;102595.45;107629;1262;61864;-82
2023/05/18 12:51:32;;;;;;;;;;;;;;;15.23;38.57;102596.66;107630;1254;124183;-83
2023/05/18 12:53:59;;;;;;;;;;;;;;;15.26;38.52;102600.77;108023;1260;66845;-82
2023/05/18 12:56:27;;;;;;;;;;;;;;;15.26;38.48;102595.51;107871;1260;71383;-82
2023/05/18 12:58:55;;;;;;;;;;;;;;;15.25;38.52;102595.84;108059;1254;124282;-83